Time;durP1;ratioP1;P1;durP2;ratioP2;P2;SDS_P1;SDS_P2;PMS_P1;PMS_P2;Temp;Humidity;BMP_temperature;BMP_pressure;BME280_temperature;BME280_humidity;BME280_pressure;Samples;Min_cycle;Max_cycle;Signal;HPM_P1;HPM_P2
2023/05/22 00:02:57;;;;;;;10.25;5.38;;;;;;;0.01;0.00;59042.03;10452387;28;20061;-82
2023/05/22 00:07:59;;;;;;;9.80;4.53;;;;;;;0.01;0.00;59042.03;10456898;28;20044;-82
2023/05/22 00:13:01;;;;;;;9.68;4.68;;;;;;;0.01;0.00;59042.03;10456440;28;20126;-81
2023/05/22 00:18:03;;;;;;;8.27;4.50;;;;;;;0.01;0.00;59042.03;10456169;28;20048;-82
2023/05/22 00:23:08;;;;;;;11.07;5.32;;;;;;;0.01;0.00;59042.03;10464946;28;20045;-82
2023/05/22 00:28:10;;;;;;;10.13;4.97;;;;;;;0.01;0.00;59042.03;10445670;28;20057;-82
2023/05/22 00:33:12;;;;;;;8.90;4.97;;;;;;;0.01;0.00;59042.03;10446945;28;20053;-83
2023/05/22 00:38:31;;;;;;;8.43;4.32;;;;;;;0.01;0.00;59042.03;10451715;28;20075;-82
2023/05/22 00:43:33;;;;;;;9.80;4.95;;;;;;;0.01;0.00;59042.03;10426635;28;20041;-83
2023/05/22 00:48:35;;;;;;;9.18;4.65;;;;;;;0.01;0.00;59042.03;10451846;28;20068;-82
2023/05/22 00:53:36;;;;;;;8.60;4.35;;;;;;;0.01;0.00;59042.03;10447484;28;20097;-82
2023/05/22 00:58:38;;;;;;;8.93;4.85;;;;;;;0.01;0.00;59042.03;10436866;28;20410;-81
2023/05/22 01:03:43;;;;;;;10.00;4.65;;;;;;;0.01;0.00;59042.03;10461760;28;20052;-82
2023/05/22 01:08:46;;;;;;;12.57;4.70;;;;;;;0.01;0.00;59042.03;10457185;28;20131;-82
2023/05/22 01:13:48;;;;;;;9.25;4.72;;;;;;;0.01;0.00;59042.03;10457317;28;20420;-82
2023/05/22 01:19:29;;;;;;;9.02;4.35;;;;;;;0.01;0.00;59042.03;10481409;28;20067;-82
2023/05/22 01:24:53;;;;;;;9.40;4.85;;;;;;;0.01;0.00;59042.03;10442597;28;20037;-81
2023/05/22 01:30:04;;;;;;;11.52;5.07;;;;;;;0.01;0.00;59042.03;10454744;28;20064;-82
2023/05/22 01:35:09;;;;;;;10.07;4.93;;;;;;;0.01;0.00;59042.03;10445096;28;20068;-82
2023/05/22 01:40:12;;;;;;;12.05;4.60;;;;;;;0.01;0.00;59042.03;10435335;28;20059;-82
2023/05/22 01:45:14;;;;;;;9.30;4.30;;;;;;;0.01;0.00;59042.03;10453979;28;20088;-82
2023/05/22 01:50:19;;;;;;;9.50;4.75;;;;;;;0.01;0.00;59042.03;10470541;28;20135;-81
2023/05/22 01:55:45;;;;;;;8.52;4.85;;;;;;;0.01;0.00;59042.03;10468606;28;20150;-81
2023/05/22 02:00:53;;;;;;;11.60;5.05;;;;;;;0.01;0.00;59042.03;10434582;28;20079;-83
2023/05/22 02:05:59;;;;;;;8.43;4.65;;;;;;;0.01;0.00;59042.03;10451090;28;20041;-82
2023/05/22 02:11:02;;;;;;;10.02;5.18;;;;;;;0.01;0.00;59042.03;10443084;28;20041;-82
2023/05/22 02:16:05;;;;;;;8.35;4.32;;;;;;;0.01;0.00;59042.03;10445042;28;20045;-82
2023/05/22 02:21:07;;;;;;;9.82;4.53;;;;;;;0.01;0.00;59042.03;10425135;28;20116;-82
2023/05/22 02:26:09;;;;;;;8.38;4.15;;;;;;;0.01;0.00;59042.03;10440335;28;20079;-82
2023/05/22 02:31:11;;;;;;;9.85;5.18;;;;;;;0.01;0.00;59042.03;10448848;28;20432;-82
2023/05/22 02:36:14;;;;;;;24.67;4.85;;;;;;;0.01;0.00;59042.03;10418128;28;20052;-83
2023/05/22 02:41:17;;;;;;;11.05;3.97;;;;;;;0.01;0.00;59042.03;10422071;28;20134;-82
2023/05/22 02:46:19;;;;;;;8.50;5.10;;;;;;;0.01;0.00;59042.03;10446963;28;20447;-82
2023/05/22 02:51:21;;;;;;;10.23;4.97;;;;;;;0.01;0.00;59042.03;10428075;28;20444;-81
2023/05/22 02:56:26;;;;;;;9.63;4.47;;;;;;;0.01;0.00;59042.03;10428405;28;20041;-82
2023/05/22 03:01:30;;;;;;;7.95;3.72;;;;;;;0.01;0.00;59042.03;10428315;28;20052;-83
2023/05/22 03:06:33;;;;;;;8.48;4.35;;;;;;;0.01;0.00;59042.03;10424036;28;20520;-83
2023/05/22 03:11:35;;;;;;;8.77;4.38;;;;;;;0.01;0.00;59042.03;10472958;28;20056;-82
2023/05/22 03:16:37;;;;;;;12.13;4.18;;;;;;;0.01;0.00;59042.03;10430276;28;20045;-84
2023/05/22 03:21:40;;;;;;;10.10;4.60;;;;;;;0.01;0.00;59042.03;10428729;28;20679;-80
2023/05/22 03:26:42;;;;;;;9.38;4.13;;;;;;;0.01;0.00;59042.03;10430224;28;20049;-81
2023/05/22 03:31:51;;;;;;;7.90;4.30;;;;;;;0.01;0.00;59042.03;10417281;28;20056;-81
2023/05/22 03:36:53;;;;;;;7.85;4.43;;;;;;;0.01;0.00;59042.03;10457464;28;20045;-82
2023/05/22 03:41:55;;;;;;;8.10;4.40;;;;;;;0.01;0.00;59042.03;10479828;28;20040;-81
2023/05/22 03:46:58;;;;;;;9.23;4.85;;;;;;;0.01;0.00;59042.03;10438881;28;20626;-82
2023/05/22 03:51:59;;;;;;;10.23;4.63;;;;;;;0.01;0.00;59042.03;10447818;28;20477;-82
2023/05/22 03:57:01;;;;;;;8.48;4.88;;;;;;;0.01;0.00;59042.03;10467723;28;20045;-81
2023/05/22 04:02:04;;;;;;;8.73;4.05;;;;;;;0.01;0.00;59042.03;10447734;28;20094;-81
2023/05/22 04:07:11;;;;;;;9.93;4.47;;;;;;;0.01;0.00;59042.03;10464965;28;20098;-81
2023/05/22 04:12:13;;;;;;;8.35;4.18;;;;;;;0.01;0.00;59042.03;10458453;28;20417;-81
2023/05/22 04:17:16;;;;;;;7.78;3.92;;;;;;;0.01;0.00;59042.03;10463977;28;20064;-81
2023/05/22 04:22:18;;;;;;;7.55;3.88;;;;;;;0.01;0.00;59042.03;10472490;28;20040;-81
2023/05/22 04:27:21;;;;;;;6.95;3.55;;;;;;;0.01;0.00;59042.03;10456438;28;20497;-81
2023/05/22 04:32:23;;;;;;;9.50;3.95;;;;;;;0.01;0.00;59042.03;10434407;28;20157;-81
2023/05/22 04:37:27;;;;;;;8.55;4.28;;;;;;;0.01;0.00;59042.03;10456265;28;20044;-81
2023/05/22 04:42:30;;;;;;;7.72;4.28;;;;;;;0.01;0.00;59042.03;10464108;28;20044;-81
2023/05/22 04:47:32;;;;;;;7.55;3.75;;;;;;;0.01;0.00;59042.03;10441339;28;20116;-81
2023/05/22 04:52:39;;;;;;;7.50;3.67;;;;;;;0.01;0.00;59042.03;10469743;28;20044;-81
2023/05/22 04:57:43;;;;;;;8.98;4.03;;;;;;;0.01;0.00;59042.03;10457374;28;20071;-81
2023/05/22 05:02:45;;;;;;;8.05;3.92;;;;;;;0.01;0.00;59042.03;10426239;28;20063;-81
2023/05/22 05:07:48;;;;;;;8.23;4.10;;;;;;;0.01;0.00;59042.03;10476810;28;20039;-81
2023/05/22 05:12:51;;;;;;;7.35;3.70;;;;;;;0.01;0.00;59042.03;10443584;28;20127;-81
2023/05/22 05:17:53;;;;;;;12.48;4.78;;;;;;;0.01;0.00;59042.03;10450509;28;20052;-82
2023/05/22 05:22:55;;;;;;;9.40;3.80;;;;;;;0.01;0.00;59042.03;10457716;28;20049;-83
2023/05/22 05:27:56;;;;;;;9.48;4.03;;;;;;;0.01;0.00;59042.03;10466975;28;20516;-81
2023/05/22 05:32:58;;;;;;;8.00;4.30;;;;;;;0.01;0.00;59042.03;10434081;28;20071;-81
2023/05/22 05:38:08;;;;;;;;;;;;;;;0.01;0.00;59042.03;10434310;28;20256;-81
2023/05/22 05:43:15;;;;;;;8.15;4.45;;;;;;;0.01;0.00;59042.03;10430212;28;19986;-82
2023/05/22 05:48:17;;;;;;;9.95;3.90;;;;;;;0.01;0.00;59042.03;10430180;28;20048;-82
2023/05/22 05:53:21;;;;;;;8.40;4.10;;;;;;;0.01;0.00;59042.03;10424626;28;20469;-82
2023/05/22 05:58:29;;;;;;;11.15;4.30;;;;;;;0.01;0.00;59042.03;10419081;28;20437;-82
2023/05/22 06:03:50;;;;;;;7.40;3.72;;;;;;;0.01;0.00;59042.03;10441499;28;20072;-82
2023/05/22 06:09:04;;;;;;;9.23;4.45;;;;;;;0.01;0.00;59042.03;10449609;28;20044;-82
2023/05/22 06:14:09;;;;;;;7.97;4.03;;;;;;;0.01;0.00;59042.03;10432395;28;20045;-82
2023/05/22 06:19:11;;;;;;;8.98;4.47;;;;;;;0.01;0.00;59042.03;10433751;28;20059;-85
2023/05/22 06:24:13;;;;;;;9.05;4.43;;;;;;;0.01;0.00;59042.03;10429166;28;20063;-84
2023/05/22 06:29:15;;;;;;;11.40;4.18;;;;;;;0.01;0.00;59042.03;10445627;28;20045;-85
2023/05/22 06:34:21;;;;;;;10.15;4.78;;;;;;;0.01;0.00;59042.03;10415714;28;20073;-85
2023/05/22 06:39:24;;;;;;;11.32;5.05;;;;;;;0.01;0.00;59042.03;10437282;28;20063;-83
2023/05/22 06:44:41;;;;;;;10.10;4.47;;;;;;;0.01;0.00;59042.03;10446420;28;20044;-84
2023/05/22 06:49:42;;;;;;;10.68;5.72;;;;;;;0.01;0.00;59042.03;10427436;28;20087;-84
2023/05/22 06:54:44;;;;;;;10.23;5.25;;;;;;;0.01;0.00;59042.03;10415536;28;20148;-83
2023/05/22 06:59:49;;;;;;;10.40;5.55;;;;;;;0.01;0.00;59042.03;10458604;28;20425;-83
2023/05/22 07:05:16;;;;;;;8.70;4.68;;;;;;;0.01;0.00;59042.03;10448725;28;20084;-82
2023/05/22 07:10:26;;;;;;;10.63;5.30;;;;;;;0.01;0.00;59042.03;10423666;28;20048;-83
2023/05/22 07:15:30;;;;;;;10.25;4.97;;;;;;;0.01;0.00;59042.03;10431854;28;20041;-85
2023/05/22 07:20:36;;;;;;;9.65;4.97;;;;;;;0.01;0.00;59042.03;10414987;28;20099;-83
2023/05/22 07:25:51;;;;;;;8.75;5.32;;;;;;;0.01;0.00;59042.03;10431112;28;20816;-82
2023/05/22 07:30:56;;;;;;;10.20;5.20;;;;;;;0.01;0.00;59042.03;10455937;28;20448;-82
2023/05/22 07:35:58;;;;;;;10.50;5.75;;;;;;;0.01;0.00;59042.03;10474363;28;20095;-83
2023/05/22 07:41:01;;;;;;;11.43;5.95;;;;;;;0.01;0.00;59042.03;10448044;28;20045;-83
2023/05/22 07:46:08;;;;;;;11.88;5.95;;;;;;;0.01;0.00;59042.03;10464796;28;20041;-83
2023/05/22 07:51:17;;;;;;;8.55;4.82;;;;;;;0.01;0.00;59042.03;10451138;28;20409;-82
2023/05/22 07:56:24;;;;;;;9.10;4.78;;;;;;;0.01;0.00;59042.03;10429363;28;20164;-84
2023/05/22 08:01:26;;;;;;;10.43;5.10;;;;;;;0.01;0.00;59042.03;10430883;28;20080;-85
2023/05/22 08:06:29;;;;;;;10.38;4.35;;;;;;;0.01;0.00;59042.03;10446982;28;20131;-84
2023/05/22 08:11:31;;;;;;;11.38;5.40;;;;;;;0.01;0.00;59042.03;10444727;28;20037;-85
2023/05/22 08:16:33;;;;;;;11.85;5.18;;;;;;;0.01;0.00;59042.03;10446078;28;20048;-86
2023/05/22 08:21:36;;;;;;;11.30;5.47;;;;;;;0.01;0.00;59042.03;10428832;28;20129;-85
2023/05/22 08:26:39;;;;;;;10.68;5.10;;;;;;;0.01;0.00;59042.03;10446438;28;20151;-85
2023/05/22 08:31:40;;;;;;;10.55;5.32;;;;;;;0.01;0.00;59042.03;10447326;28;20071;-84
2023/05/22 08:36:42;;;;;;;8.32;4.38;;;;;;;0.01;0.00;59042.03;10453685;28;20167;-85
2023/05/22 08:41:44;;;;;;;8.85;4.78;;;;;;;0.01;0.00;59042.03;10420911;28;20501;-85
2023/05/22 08:46:47;;;;;;;9.52;4.75;;;;;;;0.01;0.00;59042.03;10458392;28;20176;-84
2023/05/22 08:52:11;;;;;;;10.98;5.70;;;;;;;0.01;0.00;59042.03;10463838;28;20056;-84
2023/05/22 08:57:13;;;;;;;11.43;5.50;;;;;;;0.01;0.00;59042.03;10478313;28;20535;-84
2023/05/22 09:02:16;;;;;;;10.75;5.82;;;;;;;0.01;0.00;59042.03;10430709;28;20049;-84
2023/05/22 09:07:20;;;;;;;9.57;5.45;;;;;;;0.01;0.00;59042.03;10453952;22;20048;-85
2023/05/22 09:12:25;;;;;;;11.35;6.05;;;;;;;0.01;0.00;59042.03;10420108;28;20049;-84
2023/05/22 09:17:27;;;;;;;10.95;5.78;;;;;;;0.01;0.00;59042.03;10444745;28;20041;-84
2023/05/22 09:22:38;;;;;;;10.35;5.90;;;;;;;0.01;0.00;59042.03;10412729;28;20037;-84
2023/05/22 09:27:45;;;;;;;10.95;5.35;;;;;;;0.01;0.00;59042.03;10438427;28;20071;-85
2023/05/22 09:32:49;;;;;;;11.57;5.60;;;;;;;0.01;0.00;59042.03;10414627;28;20123;-84
2023/05/22 09:37:51;;;;;;;11.70;5.75;;;;;;;0.01;0.00;59042.03;10420260;28;20037;-84
2023/05/22 09:42:53;;;;;;;11.55;6.10;;;;;;;0.01;0.00;59042.03;10426174;28;20126;-85
2023/05/22 09:47:54;;;;;;;11.10;5.57;;;;;;;0.01;0.00;59042.03;10446361;28;20386;-86
2023/05/22 09:53:01;;;;;;;17.75;6.60;;;;;;;0.01;0.00;59042.03;10434124;28;20045;-85
2023/05/22 09:58:05;;;;;;;15.70;6.38;;;;;;;0.01;0.00;59042.03;10417296;28;20491;-85
2023/05/22 10:03:10;;;;;;;13.13;6.07;;;;;;;0.01;0.00;59042.03;10409000;28;20037;-84
2023/05/22 10:08:39;;;;;;;10.48;6.25;;;;;;;0.01;0.00;59042.03;10434439;28;20049;-83
2023/05/22 10:13:42;;;;;;;10.48;6.10;;;;;;;0.01;0.00;59042.03;10429425;28;20449;-81
2023/05/22 10:18:47;;;;;;;11.13;6.65;;;;;;;0.01;0.00;59042.03;10454217;28;20059;-81
2023/05/22 10:23:51;;;;;;;11.13;6.38;;;;;;;0.01;0.00;59042.03;10444608;28;20368;-80
2023/05/22 10:29:01;;;;;;;10.60;5.47;;;;;;;0.01;0.00;59042.03;10440728;28;20854;-80
2023/05/22 10:34:06;;;;;;;12.63;7.00;;;;;;;0.01;0.00;59042.03;10408337;28;20075;-83
2023/05/22 10:39:30;;;;;;;11.50;6.55;;;;;;;0.01;0.00;59042.03;10429767;28;20489;-82
2023/05/22 10:44:32;;;;;;;16.58;6.40;;;;;;;0.01;0.00;59042.03;10455150;28;20044;-80
2023/05/22 10:49:33;;;;;;;11.63;6.05;;;;;;;0.01;0.00;59042.03;10446065;28;20041;-81
2023/05/22 10:54:38;;;;;;;13.57;6.30;;;;;;;0.01;0.00;59042.03;10457916;28;20044;-81
2023/05/22 10:59:41;;;;;;;12.13;6.50;;;;;;;0.01;0.00;59042.03;10447425;28;20121;-80
2023/05/22 11:04:42;;;;;;;11.50;6.22;;;;;;;0.01;0.00;59042.03;10443998;28;20088;-82
2023/05/22 11:09:47;;;;;;;10.98;6.13;;;;;;;0.01;0.00;59042.03;10446443;28;20376;-82
2023/05/22 11:14:54;;;;;;;12.63;6.78;;;;;;;0.01;0.00;59042.03;10462347;28;20041;-81
2023/05/22 11:20:23;;;;;;;11.02;5.88;;;;;;;0.01;0.00;59042.03;10458568;28;20078;-81
2023/05/22 11:25:27;;;;;;;16.73;6.95;;;;;;;0.01;0.00;59042.03;10421038;28;20061;-80
2023/05/22 11:30:29;;;;;;;12.15;6.95;;;;;;;0.01;0.00;59042.03;10439805;28;20104;-81
2023/05/22 11:35:31;;;;;;;12.63;6.40;;;;;;;0.01;0.00;59042.03;10415765;28;20037;-83
2023/05/22 11:40:33;;;;;;;11.52;5.93;;;;;;;0.01;0.00;59042.03;10422140;28;20041;-85
2023/05/22 11:45:38;;;;;;;14.80;6.68;;;;;;;0.01;0.00;59042.03;10440273;28;20095;-85
2023/05/22 11:50:42;;;;;;;12.20;6.50;;;;;;;0.01;0.00;59042.03;10448802;28;20029;-85
2023/05/22 11:55:47;;;;;;;11.98;6.93;;;;;;;0.01;0.00;59042.03;10448570;28;20053;-86
2023/05/22 12:00:49;;;;;;;10.73;6.53;;;;;;;0.01;0.00;59042.03;10438871;28;20064;-86
2023/05/22 12:05:50;;;;;;;11.88;7.05;;;;;;;0.01;0.00;59042.03;10433840;28;20047;-85
2023/05/22 12:10:53;;;;;;;14.13;7.45;;;;;;;0.01;0.00;59042.03;10453740;28;20029;-85
2023/05/22 12:15:59;;;;;;;13.57;6.30;;;;;;;0.01;0.00;59042.03;10460444;28;20580;-85
2023/05/22 12:21:04;;;;;;;13.05;6.78;;;;;;;0.01;0.00;59042.03;10454022;28;20047;-84
2023/05/22 12:26:10;;;;;;;13.77;6.72;;;;;;;0.01;0.00;59042.03;10429966;28;20183;-83
2023/05/22 12:31:20;;;;;;;12.65;6.32;;;;;;;0.01;0.00;59042.03;10438140;28;20067;-81
2023/05/22 12:36:39;;;;;;;11.95;6.43;;;;;;;0.01;0.00;59042.03;10432785;28;20041;-83
2023/05/22 12:41:42;;;;;;;15.75;6.95;;;;;;;0.01;0.00;59042.03;10441863;28;20087;-83
2023/05/22 12:46:43;;;;;;;18.60;7.68;;;;;;;0.01;0.00;59042.03;10424793;28;20075;-82
2023/05/22 12:51:45;;;;;;;17.60;7.22;;;;;;;0.01;0.00;59042.03;10431465;28;20047;-82
2023/05/22 12:56:47;;;;;;;12.65;6.70;;;;;;;0.01;0.00;59042.03;10420710;28;20033;-80
2023/05/22 13:01:49;;;;;;;13.43;7.63;;;;;;;0.01;0.00;59042.03;10439730;28;20497;-80
2023/05/22 13:06:50;;;;;;;15.15;7.40;;;;;;;0.01;0.00;59042.03;10402425;28;20065;-81
2023/05/22 13:11:52;;;;;;;12.52;7.18;;;;;;;0.01;0.00;59042.03;10435566;28;20063;-81
2023/05/22 13:16:53;;;;;;;15.00;7.95;;;;;;;0.01;0.00;59042.03;10438318;28;20045;-81
2023/05/22 13:21:55;;;;;;;13.43;7.57;;;;;;;0.01;0.00;59042.03;10451688;28;20041;-80
2023/05/22 13:26:56;;;;;;;13.10;7.22;;;;;;;0.01;0.00;59042.03;10421517;28;20461;-78
2023/05/22 13:31:59;;;;;;;12.80;6.75;;;;;;;0.01;0.00;59042.03;10462916;28;20501;-79
2023/05/22 13:37:01;;;;;;;12.43;7.00;;;;;;;0.01;0.00;59042.03;10461731;28;20060;-79
2023/05/22 13:42:03;;;;;;;11.70;7.40;;;;;;;0.01;0.00;59042.03;10466970;28;20041;-78
2023/05/22 13:47:04;;;;;;;13.25;7.30;;;;;;;0.01;0.00;59042.03;10430682;28;20069;-80
2023/05/22 13:52:06;;;;;;;12.45;6.53;;;;;;;0.01;0.00;59042.03;10456709;28;20076;-78
2023/05/22 13:57:07;;;;;;;12.82;6.90;;;;;;;0.01;0.00;59042.03;10449444;28;20052;-79
2023/05/22 14:02:09;;;;;;;11.57;6.93;;;;;;;0.01;0.00;59042.03;10422984;28;20479;-79
2023/05/22 14:07:11;;;;;;;11.32;6.18;;;;;;;0.01;0.00;59042.03;10444110;28;20121;-77
2023/05/22 14:12:12;;;;;;;14.27;6.85;;;;;;;0.01;0.00;59042.03;10457493;28;20045;-77
2023/05/22 14:17:14;;;;;;;11.05;6.20;;;;;;;0.01;0.00;59042.03;10445756;28;20088;-78
2023/05/22 14:22:16;;;;;;;14.63;7.38;;;;;;;0.01;0.00;59042.03;10434330;28;20651;-79
2023/05/22 14:27:17;;;;;;;11.95;6.18;;;;;;;0.01;0.00;59042.03;10418121;28;20503;-80
2023/05/22 14:32:19;;;;;;;19.60;6.95;;;;;;;0.01;0.00;59042.03;10446565;28;20033;-79
2023/05/22 14:37:20;;;;;;;11.77;7.20;;;;;;;0.01;0.00;59042.03;10460146;28;20073;-81
2023/05/22 14:42:22;;;;;;;15.77;6.97;;;;;;;0.01;0.00;59042.03;10449698;28;20037;-78
2023/05/22 14:47:24;;;;;;;13.13;6.55;;;;;;;0.01;0.00;59042.03;10456641;28;20115;-78
2023/05/22 14:52:25;;;;;;;13.82;6.45;;;;;;;0.01;0.00;59042.03;10454633;28;20060;-79
2023/05/22 14:57:27;;;;;;;14.40;6.63;;;;;;;0.01;0.00;59042.03;10454752;28;20109;-79
2023/05/22 15:02:29;;;;;;;12.85;6.07;;;;;;;0.01;0.00;59042.03;10451210;28;20092;-79
2023/05/22 15:07:30;;;;;;;11.15;6.00;;;;;;;0.01;0.00;59042.03;10452228;28;20077;-79
2023/05/22 15:12:44;;;;;;;11.77;6.50;;;;;;;0.01;0.00;59042.03;10440711;28;20049;-80
2023/05/22 15:17:46;;;;;;;11.73;6.75;;;;;;;0.01;0.00;59042.03;10449052;28;20053;-81
2023/05/22 15:22:48;;;;;;;11.20;6.80;;;;;;;0.01;0.00;59042.03;10436076;28;20041;-83
2023/05/22 15:27:49;;;;;;;11.43;6.80;;;;;;;0.01;0.00;59042.03;10436011;28;20076;-80
2023/05/22 15:32:51;;;;;;;15.73;8.13;;;;;;;0.01;0.00;59042.03;10457331;28;20040;-81
2023/05/22 15:37:53;;;;;;;14.60;6.95;;;;;;;0.01;0.00;59042.03;10460849;28;20033;-80
2023/05/22 15:42:54;;;;;;;11.85;6.28;;;;;;;0.01;0.00;59042.03;10435596;28;20041;-80
2023/05/22 15:47:57;;;;;;;12.25;6.53;;;;;;;0.01;0.00;59042.03;10450564;28;20160;-79
2023/05/22 15:52:59;;;;;;;11.55;5.47;;;;;;;0.01;0.00;59042.03;10453093;28;20049;-78
2023/05/22 15:58:06;;;;;;;11.95;6.28;;;;;;;0.01;0.00;59042.03;10460525;28;20516;-79
2023/05/22 16:03:09;;;;;;;10.73;5.95;;;;;;;0.01;0.00;59042.03;10437088;28;20257;-78
2023/05/22 16:08:13;;;;;;;11.57;5.90;;;;;;;0.01;0.00;59042.03;10460161;28;20049;-80
2023/05/22 16:13:15;;;;;;;12.77;7.22;;;;;;;0.01;0.00;59042.03;10397202;28;20116;-80
2023/05/22 16:18:19;;;;;;;10.32;5.53;;;;;;;0.01;0.00;59042.03;10431868;28;20073;-80
2023/05/22 16:23:21;;;;;;;12.55;6.05;;;;;;;0.01;0.00;59042.03;10436477;28;20072;-81
2023/05/22 16:28:22;;;;;;;12.43;6.55;;;;;;;0.01;0.00;59042.03;10431016;28;20131;-79
2023/05/22 16:33:24;;;;;;;10.82;5.82;;;;;;;0.01;0.00;59042.03;10442105;28;20075;-79
2023/05/22 16:38:25;;;;;;;13.10;5.60;;;;;;;0.01;0.00;59042.03;10413300;28;20128;-81
2023/05/22 16:43:27;;;;;;;11.63;5.70;;;;;;;0.01;0.00;59042.03;10439947;28;20546;-80
2023/05/22 16:48:28;;;;;;;9.02;5.32;;;;;;;0.01;0.00;59042.03;10437674;28;20493;-81
2023/05/22 16:53:30;;;;;;;10.82;5.13;;;;;;;0.01;0.00;59042.03;10447127;28;20064;-79
2023/05/22 16:58:31;;;;;;;11.40;5.47;;;;;;;0.01;0.00;59042.03;10431614;28;20044;-80
2023/05/22 17:03:33;;;;;;;9.73;4.70;;;;;;;0.01;0.00;59042.03;10426923;28;20063;-79
2023/05/22 17:08:35;;;;;;;12.35;4.97;;;;;;;0.01;0.00;59042.03;10430371;28;20068;-79
2023/05/22 17:13:37;;;;;;;9.73;5.10;;;;;;;0.01;0.00;59042.03;10450833;28;20063;-79
2023/05/22 17:18:38;;;;;;;8.57;4.53;;;;;;;0.01;0.00;59042.03;10445962;28;20053;-83
2023/05/22 17:23:40;;;;;;;10.88;5.15;;;;;;;0.01;0.00;59042.03;10430522;28;20095;-82
2023/05/22 17:28:41;;;;;;;11.00;5.03;;;;;;;0.01;0.00;59042.03;10430207;28;20636;-81
2023/05/22 17:33:44;;;;;;;12.40;5.40;;;;;;;0.01;0.00;59042.03;10399748;28;20128;-84
2023/05/22 17:38:45;;;;;;;9.98;5.03;;;;;;;0.01;0.00;59042.03;10401666;28;20117;-81
2023/05/22 17:43:47;;;;;;;10.93;5.47;;;;;;;0.01;0.00;59042.03;10426132;28;20041;-80
2023/05/22 17:48:48;;;;;;;8.75;4.97;;;;;;;0.01;0.00;59042.03;10422866;28;20087;-81
2023/05/22 17:53:54;;;;;;;12.13;5.35;;;;;;;0.01;0.00;59042.03;10416909;28;20033;-82
2023/05/22 17:58:56;;;;;;;10.52;4.97;;;;;;;0.01;0.00;59042.03;10422806;28;20055;-80
2023/05/22 18:03:59;;;;;;;8.63;4.95;;;;;;;0.01;0.00;59042.03;10424540;28;20144;-80
2023/05/22 18:09:03;;;;;;;13.95;5.95;;;;;;;0.01;0.00;59042.03;10417266;28;20409;-78
2023/05/22 18:14:04;;;;;;;10.30;5.15;;;;;;;0.01;0.00;59042.03;10402849;28;20045;-79
2023/05/22 18:19:06;;;;;;;9.68;5.10;;;;;;;0.01;0.00;59042.03;10387718;28;20049;-78
2023/05/22 18:24:08;;;;;;;11.50;5.40;;;;;;;0.01;0.00;59042.03;10392887;28;20535;-80
2023/05/22 18:29:09;;;;;;;9.25;5.10;;;;;;;0.01;0.00;59042.03;10382829;28;20060;-77
2023/05/22 18:34:12;;;;;;;12.73;5.13;;;;;;;0.01;0.00;59042.03;10399766;28;20073;-77
2023/05/22 18:39:14;;;;;;;10.88;5.55;;;;;;;0.01;0.00;59042.03;10394409;28;20047;-77
2023/05/22 18:44:15;;;;;;;10.88;5.13;;;;;;;0.01;0.00;59042.03;10418635;28;20052;-77
2023/05/22 18:49:17;;;;;;;14.27;5.85;;;;;;;0.01;0.00;59042.03;10385346;28;20512;-76
2023/05/22 18:54:18;;;;;;;11.77;5.75;;;;;;;0.01;0.00;59042.03;10419052;28;20140;-77
2023/05/22 18:59:20;;;;;;;12.38;6.43;;;;;;;0.01;0.00;59042.03;10415643;28;20050;-77
2023/05/22 19:04:22;;;;;;;10.38;5.50;;;;;;;0.01;0.00;59042.03;10390561;28;20037;-77
2023/05/22 19:09:23;;;;;;;11.32;5.90;;;;;;;0.01;0.00;59042.03;10407928;28;20088;-77
2023/05/22 19:14:25;;;;;;;12.05;6.20;;;;;;;0.01;0.00;59042.03;10425238;28;20053;-78
2023/05/22 19:19:27;;;;;;;13.23;6.18;;;;;;;0.01;0.00;59042.03;10375779;28;20696;-77
2023/05/22 19:24:28;;;;;;;12.13;5.95;;;;;;;0.01;0.00;59042.03;10417639;28;20802;-77
2023/05/22 19:29:30;;;;;;;10.70;5.18;;;;;;;0.01;0.00;59042.03;10440455;28;20041;-77
2023/05/22 19:34:31;;;;;;;9.57;4.90;;;;;;;0.01;0.00;59042.03;10427098;28;20056;-77
2023/05/22 19:39:33;;;;;;;11.98;4.88;;;;;;;0.01;0.00;59042.03;10391502;28;20041;-76
2023/05/22 19:44:35;;;;;;;10.82;4.93;;;;;;;0.01;0.00;59042.03;10420250;28;20065;-76
2023/05/22 19:49:36;;;;;;;11.43;4.80;;;;;;;0.01;0.00;59042.03;10409029;28;20128;-76
2023/05/22 19:54:38;;;;;;;12.75;4.57;;;;;;;0.01;0.00;59042.03;10427230;28;20049;-77
2023/05/22 19:59:40;;;;;;;9.35;4.75;;;;;;;0.01;0.00;59042.03;10434247;28;20502;-77
2023/05/22 20:04:42;;;;;;;9.80;5.00;;;;;;;0.01;0.00;59042.03;10410796;28;20103;-77
2023/05/22 20:09:43;;;;;;;9.60;4.57;;;;;;;0.01;0.00;59042.03;10437526;28;20061;-77
2023/05/22 20:14:45;;;;;;;10.20;4.95;;;;;;;0.01;0.00;59042.03;10417320;28;20164;-76
2023/05/22 20:19:46;;;;;;;11.85;5.05;;;;;;;0.01;0.00;59042.03;10431378;28;20036;-76
2023/05/22 20:24:48;;;;;;;10.65;4.90;;;;;;;0.01;0.00;59042.03;10436279;28;20475;-77
2023/05/22 20:29:50;;;;;;;10.20;5.50;;;;;;;0.01;0.00;59042.03;10484805;22;20148;-81
2023/05/22 20:34:54;;;;;;;11.60;5.28;;;;;;;0.01;0.00;59042.03;10433235;28;20548;-81
2023/05/22 20:40:08;;;;;;;11.10;5.55;;;;;;;0.01;0.00;59042.03;10413337;28;20054;-81
2023/05/22 20:45:09;;;;;;;10.55;5.53;;;;;;;0.01;0.00;59042.03;10405877;28;20061;-80
2023/05/22 20:50:15;;;;;;;11.38;5.90;;;;;;;0.01;0.00;59042.03;10440133;28;20046;-81
2023/05/22 20:55:16;;;;;;;11.48;6.45;;;;;;;0.01;0.00;59042.03;10423551;28;20145;-83
2023/05/22 21:00:18;;;;;;;18.90;7.07;;;;;;;0.01;0.00;59042.03;10415718;28;20106;-81
2023/05/22 21:05:19;;;;;;;12.63;6.30;;;;;;;0.01;0.00;59042.03;10406286;28;20048;-81
2023/05/22 21:10:21;;;;;;;11.50;6.00;;;;;;;0.01;0.00;59042.03;10430145;28;20478;-82
2023/05/22 21:15:23;;;;;;;14.52;5.75;;;;;;;0.01;0.00;59042.03;10413498;28;20061;-81
2023/05/22 21:20:25;;;;;;;;;;;;;;;0.01;0.00;59042.03;10432988;28;20673;-81
2023/05/22 21:25:26;;;;;;;7.60;3.75;;;;;;;0.01;0.00;59042.03;10423112;28;19925;-82
2023/05/22 21:30:28;;;;;;;10.38;4.60;;;;;;;0.01;0.00;59042.03;10430588;28;20064;-81
2023/05/22 21:35:30;;;;;;;10.30;4.25;;;;;;;0.01;0.00;59042.03;10431366;28;20040;-81
2023/05/22 21:40:31;;;;;;;9.00;4.13;;;;;;;0.01;0.00;59042.03;10431012;28;20104;-82
2023/05/22 21:45:33;;;;;;;8.88;4.10;;;;;;;0.01;0.00;59042.03;10430753;28;20453;-81
2023/05/22 21:50:34;;;;;;;10.63;3.80;;;;;;;0.01;0.00;59042.03;10438254;28;20069;-81
2023/05/22 21:55:36;;;;;;;8.73;4.38;;;;;;;0.01;0.00;59042.03;10435006;28;20537;-81
2023/05/22 22:00:38;;;;;;;9.82;4.40;;;;;;;0.01;0.00;59042.03;10420821;28;20087;-81
2023/05/22 22:05:40;;;;;;;8.95;4.75;;;;;;;0.01;0.00;59042.03;10408223;28;20061;-81
2023/05/22 22:10:42;;;;;;;8.32;4.30;;;;;;;0.01;0.00;59042.03;10437658;28;20041;-81
2023/05/22 22:15:43;;;;;;;10.07;4.65;;;;;;;0.01;0.00;59042.03;10445237;28;20087;-82
2023/05/22 22:20:45;;;;;;;6.80;3.35;;;;;;;0.01;0.00;59042.03;10433545;28;20069;-81
2023/05/22 22:25:47;;;;;;;9.48;3.40;;;;;;;0.01;0.00;59042.03;10402970;28;20050;-81
2023/05/22 22:30:49;;;;;;;14.13;3.55;;;;;;;0.01;0.00;59042.03;10413161;28;20588;-79
2023/05/22 22:35:51;;;;;;;;;;;;;;;0.01;0.00;59042.03;10404677;28;20061;-79
2023/05/22 22:40:52;;;;;;;8.02;3.35;;;;;;;0.01;0.00;59042.03;10390448;28;19927;-79
2023/05/22 22:45:54;;;;;;;8.68;3.67;;;;;;;0.01;0.00;59042.03;10417480;28;20120;-81
2023/05/22 22:50:56;;;;;;;11.18;3.53;;;;;;;0.01;0.00;59042.03;10413562;28;20075;-80
2023/05/22 22:55:58;;;;;;;8.60;4.22;;;;;;;0.01;0.00;59042.03;10402956;28;20045;-79
2023/05/22 23:01:00;;;;;;;;;;;;;;;0.01;0.00;59042.03;10422060;28;20045;-79
2023/05/22 23:06:02;;;;;;;8.93;3.95;;;;;;;0.01;0.00;59042.03;10414338;28;20415;-79
2023/05/22 23:11:03;;;;;;;9.85;4.18;;;;;;;0.01;0.00;59042.03;10413550;28;20120;-79
2023/05/22 23:16:05;;;;;;;14.65;4.88;;;;;;;0.01;0.00;59042.03;10401883;28;20115;-79
2023/05/22 23:21:07;;;;;;;8.45;4.20;;;;;;;0.01;0.00;59042.03;10424166;28;20064;-79
2023/05/22 23:26:08;;;;;;;9.32;4.35;;;;;;;0.01;0.00;59042.03;10417071;28;20045;-79
2023/05/22 23:31:12;;;;;;;14.02;4.57;;;;;;;0.01;0.00;59042.03;10388398;28;20505;-79
2023/05/22 23:36:14;;;;;;;7.00;3.75;;;;;;;0.01;0.00;59042.03;10418037;28;20049;-79
2023/05/22 23:41:17;;;;;;;9.27;4.05;;;;;;;0.01;0.00;59042.03;10416902;28;20128;-79
2023/05/22 23:46:19;;;;;;;11.23;4.75;;;;;;;0.01;0.00;59042.03;10415047;28;20519;-79
2023/05/22 23:51:21;;;;;;;11.23;4.75;;;;;;;0.01;0.00;59042.03;10407390;28;20107;-79
2023/05/22 23:56:23;;;;;;;9.23;4.47;;;;;;;0.01;0.00;59042.03;10432518;28;20489;-79
